Afton, Michigan
Current Conditions -  °F | °C
As of 8:36 AM on Friday 24 Oct 2014 (Local Time) from KSLH Reporting Station
Overcast Overcast  
Wind Chill: 45°   Ceiling: 2800
Heat Index: 45°   Visibility: 10mi
Dew Point: 43°   Wind: 0mph
Humidity: 92%   Direction: NA
Pressure: 30.01"   Gusts: NA
Location:  45.36°N, 84.47°W
Report Text: KSLH 241236Z AUTO 00000KT 10SM SCT016 BKN028 OVC065 07/06 A3001 RMK AO2 T00720060
Loading
Personal Weather Stations






























Interactive Weather Map New forecast layout! Learn more

10-Day Weather Forecast

Advertisements
Track Severe Weather on mobile